sensor_id;sensor_type;location;lat;lon;timestamp;P1;durP1;ratioP1;P2;durP2;ratioP2
60318;SDS011;46163;52.306;5.634;2023-06-22T00:01:17;3.60;;;2.47;;
60318;SDS011;46163;52.306;5.634;2023-06-22T00:03:46;5.38;;;2.83;;
60318;SDS011;46163;52.306;5.634;2023-06-22T00:06:12;4.03;;;2.42;;
60318;SDS011;46163;52.306;5.634;2023-06-22T00:08:38;2.80;;;2.53;;
60318;SDS011;46163;52.306;5.634;2023-06-22T00:11:03;3.35;;;2.65;;
60318;SDS011;46163;52.306;5.634;2023-06-22T00:13:29;3.50;;;2.60;;
60318;SDS011;46163;52.306;5.634;2023-06-22T00:15:54;3.35;;;2.60;;
60318;SDS011;46163;52.306;5.634;2023-06-22T00:18:22;3.20;;;2.60;;
60318;SDS011;46163;52.306;5.634;2023-06-22T00:20:53;5.65;;;2.88;;
60318;SDS011;46163;52.306;5.634;2023-06-22T00:23:22;5.65;;;2.70;;
60318;SDS011;46163;52.306;5.634;2023-06-22T00:25:49;4.97;;;3.00;;
60318;SDS011;46163;52.306;5.634;2023-06-22T00:28:14;3.22;;;2.50;;
60318;SDS011;46163;52.306;5.634;2023-06-22T00:30:40;5.35;;;2.42;;
60318;SDS011;46163;52.306;5.634;2023-06-22T00:33:08;7.32;;;2.88;;
60318;SDS011;46163;52.306;5.634;2023-06-22T00:35:33;3.55;;;2.78;;
60318;SDS011;46163;52.306;5.634;2023-06-22T00:37:59;4.18;;;2.75;;
60318;SDS011;46163;52.306;5.634;2023-06-22T00:40:29;5.03;;;3.00;;
60318;SDS011;46163;52.306;5.634;2023-06-22T00:42:58;4.65;;;2.70;;
60318;SDS011;46163;52.306;5.634;2023-06-22T00:45:24;3.20;;;2.70;;
60318;SDS011;46163;52.306;5.634;2023-06-22T00:47:52;3.17;;;2.67;;
60318;SDS011;46163;52.306;5.634;2023-06-22T00:50:21;3.60;;;2.55;;
60318;SDS011;46163;52.306;5.634;2023-06-22T00:52:53;4.95;;;2.97;;
60318;SDS011;46163;52.306;5.634;2023-06-22T00:55:21;3.88;;;2.75;;
60318;SDS011;46163;52.306;5.634;2023-06-22T00:57:47;6.75;;;2.88;;
60318;SDS011;46163;52.306;5.634;2023-06-22T01:00:14;3.38;;;2.60;;
60318;SDS011;46163;52.306;5.634;2023-06-22T01:02:44;3.00;;;2.70;;
60318;SDS011;46163;52.306;5.634;2023-06-22T01:05:17;3.30;;;2.72;;
60318;SDS011;46163;52.306;5.634;2023-06-22T01:10:55;3.25;;;2.58;;
60318;SDS011;46163;52.306;5.634;2023-06-22T01:16:29;5.00;;;2.90;;
60318;SDS011;46163;52.306;5.634;2023-06-22T01:18:56;4.20;;;2.60;;
60318;SDS011;46163;52.306;5.634;2023-06-22T01:21:25;3.42;;;2.80;;
60318;SDS011;46163;52.306;5.634;2023-06-22T01:29:40;4.18;;;2.78;;
60318;SDS011;46163;52.306;5.634;2023-06-22T01:32:08;3.95;;;2.80;;
60318;SDS011;46163;52.306;5.634;2023-06-22T01:34:36;4.30;;;2.70;;
60318;SDS011;46163;52.306;5.634;2023-06-22T01:37:05;5.80;;;3.10;;
60318;SDS011;46163;52.306;5.634;2023-06-22T01:39:31;3.22;;;2.60;;
60318;SDS011;46163;52.306;5.634;2023-06-22T01:41:57;3.15;;;2.60;;
60318;SDS011;46163;52.306;5.634;2023-06-22T01:44:25;3.27;;;2.77;;
60318;SDS011;46163;52.306;5.634;2023-06-22T01:46:51;3.53;;;2.80;;
60318;SDS011;46163;52.306;5.634;2023-06-22T01:49:17;3.15;;;2.80;;
60318;SDS011;46163;52.306;5.634;2023-06-22T01:51:43;4.35;;;3.13;;
60318;SDS011;46163;52.306;5.634;2023-06-22T01:54:09;4.38;;;3.47;;
60318;SDS011;46163;52.306;5.634;2023-06-22T01:56:34;4.38;;;3.05;;
60318;SDS011;46163;52.306;5.634;2023-06-22T02:01:50;3.65;;;3.25;;
60318;SDS011;46163;52.306;5.634;2023-06-22T02:04:56;4.32;;;3.20;;
60318;SDS011;46163;52.306;5.634;2023-06-22T02:07:22;4.47;;;3.05;;
60318;SDS011;46163;52.306;5.634;2023-06-22T02:09:48;5.13;;;3.27;;
60318;SDS011;46163;52.306;5.634;2023-06-22T02:12:18;4.72;;;3.28;;
60318;SDS011;46163;52.306;5.634;2023-06-22T02:14:48;3.90;;;3.10;;
60318;SDS011;46163;52.306;5.634;2023-06-22T02:17:15;3.88;;;2.97;;
60318;SDS011;46163;52.306;5.634;2023-06-22T02:19:41;7.05;;;3.33;;
60318;SDS011;46163;52.306;5.634;2023-06-22T02:22:07;5.03;;;3.58;;
60318;SDS011;46163;52.306;5.634;2023-06-22T02:24:33;4.03;;;3.40;;
60318;SDS011;46163;52.306;5.634;2023-06-22T02:26:59;5.40;;;3.60;;
60318;SDS011;46163;52.306;5.634;2023-06-22T02:29:26;9.15;;;3.60;;
60318;SDS011;46163;52.306;5.634;2023-06-22T02:31:52;6.40;;;3.72;;
60318;SDS011;46163;52.306;5.634;2023-06-22T02:34:18;4.05;;;3.22;;
60318;SDS011;46163;52.306;5.634;2023-06-22T02:36:45;4.88;;;3.20;;
60318;SDS011;46163;52.306;5.634;2023-06-22T02:39:17;5.07;;;3.30;;
60318;SDS011;46163;52.306;5.634;2023-06-22T02:41:44;6.18;;;3.72;;
60318;SDS011;46163;52.306;5.634;2023-06-22T02:44:09;4.13;;;3.50;;
60318;SDS011;46163;52.306;5.634;2023-06-22T02:46:37;4.30;;;3.35;;
60318;SDS011;46163;52.306;5.634;2023-06-22T02:49:02;4.78;;;3.30;;
60318;SDS011;46163;52.306;5.634;2023-06-22T02:51:28;6.32;;;3.47;;
60318;SDS011;46163;52.306;5.634;2023-06-22T02:53:53;4.97;;;3.78;;
60318;SDS011;46163;52.306;5.634;2023-06-22T02:56:22;4.07;;;3.28;;
60318;SDS011;46163;52.306;5.634;2023-06-22T02:58:50;5.80;;;3.53;;
60318;SDS011;46163;52.306;5.634;2023-06-22T03:01:16;4.75;;;3.30;;
60318;SDS011;46163;52.306;5.634;2023-06-22T03:03:44;5.45;;;3.75;;
60318;SDS011;46163;52.306;5.634;2023-06-22T03:06:09;6.05;;;3.88;;
60318;SDS011;46163;52.306;5.634;2023-06-22T03:08:39;5.18;;;3.95;;
60318;SDS011;46163;52.306;5.634;2023-06-22T03:11:04;6.47;;;3.75;;
60318;SDS011;46163;52.306;5.634;2023-06-22T03:13:29;6.15;;;4.15;;
60318;SDS011;46163;52.306;5.634;2023-06-22T03:15:55;5.30;;;3.97;;
60318;SDS011;46163;52.306;5.634;2023-06-22T03:18:21;6.43;;;4.35;;
60318;SDS011;46163;52.306;5.634;2023-06-22T03:20:47;5.38;;;4.28;;
60318;SDS011;46163;52.306;5.634;2023-06-22T03:23:13;4.80;;;4.10;;
60318;SDS011;46163;52.306;5.634;2023-06-22T03:25:38;7.57;;;4.07;;
60318;SDS011;46163;52.306;5.634;2023-06-22T03:28:04;6.85;;;4.05;;
60318;SDS011;46163;52.306;5.634;2023-06-22T03:30:29;5.07;;;4.00;;
60318;SDS011;46163;52.306;5.634;2023-06-22T03:32:55;7.43;;;4.95;;
60318;SDS011;46163;52.306;5.634;2023-06-22T03:35:20;5.97;;;4.80;;
60318;SDS011;46163;52.306;5.634;2023-06-22T03:37:46;5.25;;;4.47;;
60318;SDS011;46163;52.306;5.634;2023-06-22T03:40:12;5.82;;;4.20;;
60318;SDS011;46163;52.306;5.634;2023-06-22T03:42:37;4.53;;;4.03;;
60318;SDS011;46163;52.306;5.634;2023-06-22T03:45:03;7.82;;;4.00;;
60318;SDS011;46163;52.306;5.634;2023-06-22T03:47:29;6.35;;;4.20;;
60318;SDS011;46163;52.306;5.634;2023-06-22T03:49:55;5.90;;;4.93;;
60318;SDS011;46163;52.306;5.634;2023-06-22T03:52:23;7.30;;;5.60;;
60318;SDS011;46163;52.306;5.634;2023-06-22T03:54:50;7.25;;;5.38;;
60318;SDS011;46163;52.306;5.634;2023-06-22T03:57:16;6.07;;;5.07;;
60318;SDS011;46163;52.306;5.634;2023-06-22T03:59:41;6.20;;;4.88;;
60318;SDS011;46163;52.306;5.634;2023-06-22T04:02:07;6.40;;;5.22;;
60318;SDS011;46163;52.306;5.634;2023-06-22T04:04:32;5.95;;;4.72;;
60318;SDS011;46163;52.306;5.634;2023-06-22T04:06:58;7.05;;;5.72;;
60318;SDS011;46163;52.306;5.634;2023-06-22T04:09:24;7.38;;;5.18;;
60318;SDS011;46163;52.306;5.634;2023-06-22T04:11:49;8.23;;;6.00;;
60318;SDS011;46163;52.306;5.634;2023-06-22T04:14:15;7.20;;;5.22;;
60318;SDS011;46163;52.306;5.634;2023-06-22T04:16:40;5.78;;;4.90;;
60318;SDS011;46163;52.306;5.634;2023-06-22T04:19:05;7.47;;;5.07;;
60318;SDS011;46163;52.306;5.634;2023-06-22T04:21:31;7.50;;;5.65;;
60318;SDS011;46163;52.306;5.634;2023-06-22T04:23:56;5.72;;;5.00;;
60318;SDS011;46163;52.306;5.634;2023-06-22T04:26:22;7.63;;;5.05;;
60318;SDS011;46163;52.306;5.634;2023-06-22T04:28:56;7.57;;;5.75;;
60318;SDS011;46163;52.306;5.634;2023-06-22T04:31:22;6.50;;;5.40;;
60318;SDS011;46163;52.306;5.634;2023-06-22T04:33:56;7.82;;;6.15;;
60318;SDS011;46163;52.306;5.634;2023-06-22T04:36:22;6.63;;;5.40;;
60318;SDS011;46163;52.306;5.634;2023-06-22T04:38:48;8.10;;;5.03;;
60318;SDS011;46163;52.306;5.634;2023-06-22T04:47:35;6.47;;;4.70;;
60318;SDS011;46163;52.306;5.634;2023-06-22T05:00:13;9.02;;;5.90;;
60318;SDS011;46163;52.306;5.634;2023-06-22T05:06:28;7.72;;;6.22;;
60318;SDS011;46163;52.306;5.634;2023-06-22T05:12:22;8.57;;;6.60;;
60318;SDS011;46163;52.306;5.634;2023-06-22T05:14:48;17.08;;;9.75;;
60318;SDS011;46163;52.306;5.634;2023-06-22T05:17:13;10.18;;;8.13;;
60318;SDS011;46163;52.306;5.634;2023-06-22T05:19:40;10.73;;;7.82;;
60318;SDS011;46163;52.306;5.634;2023-06-22T05:22:10;10.52;;;8.18;;
60318;SDS011;46163;52.306;5.634;2023-06-22T05:24:37;24.20;;;15.73;;
60318;SDS011;46163;52.306;5.634;2023-06-22T05:27:03;18.38;;;13.35;;
60318;SDS011;46163;52.306;5.634;2023-06-22T05:29:28;12.73;;;10.27;;
60318;SDS011;46163;52.306;5.634;2023-06-22T05:31:54;14.13;;;10.93;;
60318;SDS011;46163;52.306;5.634;2023-06-22T05:34:19;17.20;;;12.82;;
60318;SDS011;46163;52.306;5.634;2023-06-22T05:36:45;17.77;;;13.27;;
60318;SDS011;46163;52.306;5.634;2023-06-22T05:39:11;22.65;;;16.05;;
60318;SDS011;46163;52.306;5.634;2023-06-22T05:41:38;17.30;;;13.40;;
60318;SDS011;46163;52.306;5.634;2023-06-22T05:44:04;21.02;;;16.50;;
60318;SDS011;46163;52.306;5.634;2023-06-22T05:46:30;23.20;;;16.67;;
60318;SDS011;46163;52.306;5.634;2023-06-22T05:48:55;22.48;;;16.90;;
60318;SDS011;46163;52.306;5.634;2023-06-22T05:51:21;23.50;;;17.05;;
60318;SDS011;46163;52.306;5.634;2023-06-22T05:53:46;20.90;;;15.85;;
60318;SDS011;46163;52.306;5.634;2023-06-22T05:56:15;19.02;;;15.13;;
60318;SDS011;46163;52.306;5.634;2023-06-22T05:58:41;20.35;;;15.32;;
60318;SDS011;46163;52.306;5.634;2023-06-22T06:01:06;17.85;;;14.85;;
60318;SDS011;46163;52.306;5.634;2023-06-22T06:03:32;18.83;;;15.27;;
60318;SDS011;46163;52.306;5.634;2023-06-22T06:05:57;19.67;;;14.27;;
60318;SDS011;46163;52.306;5.634;2023-06-22T06:08:27;18.48;;;14.98;;
60318;SDS011;46163;52.306;5.634;2023-06-22T06:10:52;19.05;;;14.75;;
60318;SDS011;46163;52.306;5.634;2023-06-22T06:13:20;18.10;;;15.03;;
60318;SDS011;46163;52.306;5.634;2023-06-22T06:15:45;17.17;;;14.52;;
60318;SDS011;46163;52.306;5.634;2023-06-22T06:18:11;20.02;;;14.60;;
60318;SDS011;46163;52.306;5.634;2023-06-22T06:20:36;16.15;;;12.55;;
60318;SDS011;46163;52.306;5.634;2023-06-22T06:23:02;15.57;;;12.52;;
60318;SDS011;46163;52.306;5.634;2023-06-22T06:25:28;16.23;;;12.32;;
60318;SDS011;46163;52.306;5.634;2023-06-22T06:27:53;15.07;;;12.02;;
60318;SDS011;46163;52.306;5.634;2023-06-22T06:30:19;15.27;;;10.90;;
60318;SDS011;46163;52.306;5.634;2023-06-22T06:32:45;13.02;;;10.98;;
60318;SDS011;46163;52.306;5.634;2023-06-22T06:35:12;12.77;;;9.73;;
60318;SDS011;46163;52.306;5.634;2023-06-22T06:40:06;10.57;;;8.80;;
60318;SDS011;46163;52.306;5.634;2023-06-22T06:42:38;9.55;;;8.55;;
60318;SDS011;46163;52.306;5.634;2023-06-22T06:45:10;12.10;;;8.35;;
60318;SDS011;46163;52.306;5.634;2023-06-22T06:47:47;11.57;;;7.72;;
60318;SDS011;46163;52.306;5.634;2023-06-22T06:50:14;9.93;;;6.77;;
60318;SDS011;46163;52.306;5.634;2023-06-22T06:52:40;8.88;;;6.00;;
60318;SDS011;46163;52.306;5.634;2023-06-22T06:55:07;8.88;;;5.93;;
60318;SDS011;46163;52.306;5.634;2023-06-22T06:57:37;9.10;;;6.05;;
60318;SDS011;46163;52.306;5.634;2023-06-22T07:00:04;7.68;;;5.53;;
60318;SDS011;46163;52.306;5.634;2023-06-22T07:02:38;7.45;;;5.40;;
60318;SDS011;46163;52.306;5.634;2023-06-22T07:05:08;9.95;;;5.05;;
60318;SDS011;46163;52.306;5.634;2023-06-22T07:07:36;7.38;;;5.10;;
60318;SDS011;46163;52.306;5.634;2023-06-22T07:10:04;6.35;;;5.00;;
60318;SDS011;46163;52.306;5.634;2023-06-22T07:12:30;6.95;;;4.63;;
60318;SDS011;46163;52.306;5.634;2023-06-22T07:15:05;5.22;;;4.00;;
60318;SDS011;46163;52.306;5.634;2023-06-22T07:17:36;4.15;;;3.75;;
60318;SDS011;46163;52.306;5.634;2023-06-22T07:20:03;4.68;;;3.40;;
60318;SDS011;46163;52.306;5.634;2023-06-22T07:22:35;5.63;;;3.70;;
60318;SDS011;46163;52.306;5.634;2023-06-22T07:25:02;6.43;;;3.47;;
60318;SDS011;46163;52.306;5.634;2023-06-22T07:27:44;3.95;;;3.28;;
60318;SDS011;46163;52.306;5.634;2023-06-22T07:30:11;4.18;;;3.20;;
60318;SDS011;46163;52.306;5.634;2023-06-22T07:32:37;4.17;;;2.90;;
60318;SDS011;46163;52.306;5.634;2023-06-22T07:35:03;3.92;;;2.90;;
60318;SDS011;46163;52.306;5.634;2023-06-22T07:37:29;4.70;;;3.33;;
60318;SDS011;46163;52.306;5.634;2023-06-22T07:39:55;6.70;;;3.50;;
60318;SDS011;46163;52.306;5.634;2023-06-22T07:42:24;4.55;;;2.97;;
60318;SDS011;46163;52.306;5.634;2023-06-22T07:44:51;4.55;;;3.40;;
60318;SDS011;46163;52.306;5.634;2023-06-22T07:47:17;4.38;;;2.72;;
60318;SDS011;46163;52.306;5.634;2023-06-22T07:49:50;6.00;;;2.97;;
60318;SDS011;46163;52.306;5.634;2023-06-22T07:52:15;3.97;;;3.15;;
60318;SDS011;46163;52.306;5.634;2023-06-22T07:54:41;5.32;;;3.08;;
60318;SDS011;46163;52.306;5.634;2023-06-22T07:57:06;8.32;;;2.80;;
60318;SDS011;46163;52.306;5.634;2023-06-22T07:59:32;3.40;;;2.50;;
60318;SDS011;46163;52.306;5.634;2023-06-22T08:01:58;4.25;;;3.00;;
60318;SDS011;46163;52.306;5.634;2023-06-22T08:04:26;3.42;;;2.67;;
60318;SDS011;46163;52.306;5.634;2023-06-22T08:06:53;3.65;;;2.55;;
60318;SDS011;46163;52.306;5.634;2023-06-22T08:09:19;3.17;;;2.20;;
60318;SDS011;46163;52.306;5.634;2023-06-22T08:11:44;3.27;;;2.37;;
60318;SDS011;46163;52.306;5.634;2023-06-22T08:14:10;5.07;;;3.00;;
60318;SDS011;46163;52.306;5.634;2023-06-22T08:16:35;3.33;;;2.20;;
60318;SDS011;46163;52.306;5.634;2023-06-22T08:19:01;5.50;;;2.90;;
60318;SDS011;46163;52.306;5.634;2023-06-22T08:21:26;4.00;;;2.40;;
60318;SDS011;46163;52.306;5.634;2023-06-22T08:23:52;2.83;;;2.47;;
60318;SDS011;46163;52.306;5.634;2023-06-22T08:26:17;2.97;;;2.00;;
60318;SDS011;46163;52.306;5.634;2023-06-22T08:28:43;3.73;;;2.10;;
60318;SDS011;46163;52.306;5.634;2023-06-22T08:31:08;2.60;;;2.20;;
60318;SDS011;46163;52.306;5.634;2023-06-22T08:36:59;5.13;;;2.08;;
60318;SDS011;46163;52.306;5.634;2023-06-22T08:39:25;3.47;;;2.45;;
60318;SDS011;46163;52.306;5.634;2023-06-22T08:41:52;3.45;;;2.10;;
60318;SDS011;46163;52.306;5.634;2023-06-22T08:47:57;4.80;;;2.30;;
60318;SDS011;46163;52.306;5.634;2023-06-22T08:50:34;6.63;;;2.20;;
60318;SDS011;46163;52.306;5.634;2023-06-22T08:53:05;3.15;;;2.35;;
60318;SDS011;46163;52.306;5.634;2023-06-22T08:55:33;3.05;;;2.00;;
60318;SDS011;46163;52.306;5.634;2023-06-22T08:58:02;2.10;;;1.90;;
60318;SDS011;46163;52.306;5.634;2023-06-22T09:00:35;3.05;;;2.10;;
60318;SDS011;46163;52.306;5.634;2023-06-22T09:16:36;3.17;;;2.25;;
60318;SDS011;46163;52.306;5.634;2023-06-22T09:38:31;3.40;;;2.20;;
60318;SDS011;46163;52.306;5.634;2023-06-22T09:40:56;4.45;;;2.88;;
60318;SDS011;46163;52.306;5.634;2023-06-22T09:43:21;4.45;;;3.10;;
60318;SDS011;46163;52.306;5.634;2023-06-22T09:45:47;5.40;;;3.33;;
60318;SDS011;46163;52.306;5.634;2023-06-22T09:48:13;3.35;;;2.45;;
60318;SDS011;46163;52.306;5.634;2023-06-22T09:50:38;4.43;;;2.70;;
60318;SDS011;46163;52.306;5.634;2023-06-22T09:53:04;4.18;;;2.50;;
60318;SDS011;46163;52.306;5.634;2023-06-22T09:55:30;3.70;;;2.75;;
60318;SDS011;46163;52.306;5.634;2023-06-22T09:57:55;3.78;;;2.80;;
60318;SDS011;46163;52.306;5.634;2023-06-22T10:00:21;3.83;;;3.08;;
60318;SDS011;46163;52.306;5.634;2023-06-22T10:02:47;6.65;;;3.97;;
60318;SDS011;46163;52.306;5.634;2023-06-22T10:05:13;5.25;;;3.70;;
60318;SDS011;46163;52.306;5.634;2023-06-22T10:07:39;5.93;;;4.03;;
60318;SDS011;46163;52.306;5.634;2023-06-22T10:10:07;6.45;;;3.50;;
60318;SDS011;46163;52.306;5.634;2023-06-22T10:12:33;6.00;;;4.15;;
60318;SDS011;46163;52.306;5.634;2023-06-22T10:14:59;5.70;;;4.30;;
60318;SDS011;46163;52.306;5.634;2023-06-22T10:17:25;6.15;;;4.65;;
60318;SDS011;46163;52.306;5.634;2023-06-22T10:19:51;4.70;;;3.80;;
60318;SDS011;46163;52.306;5.634;2023-06-22T10:22:16;7.18;;;4.55;;
60318;SDS011;46163;52.306;5.634;2023-06-22T10:24:42;5.75;;;4.00;;
60318;SDS011;46163;52.306;5.634;2023-06-22T10:27:11;6.07;;;5.03;;
60318;SDS011;46163;52.306;5.634;2023-06-22T10:29:37;4.93;;;4.03;;
60318;SDS011;46163;52.306;5.634;2023-06-22T10:32:03;5.82;;;3.75;;
60318;SDS011;46163;52.306;5.634;2023-06-22T10:34:31;4.82;;;4.13;;
60318;SDS011;46163;52.306;5.634;2023-06-22T10:36:56;5.10;;;3.92;;
60318;SDS011;46163;52.306;5.634;2023-06-22T10:39:22;6.85;;;3.70;;
60318;SDS011;46163;52.306;5.634;2023-06-22T10:41:47;6.55;;;4.70;;
60318;SDS011;46163;52.306;5.634;2023-06-22T10:44:13;6.45;;;4.90;;
60318;SDS011;46163;52.306;5.634;2023-06-22T10:46:38;5.25;;;4.38;;
60318;SDS011;46163;52.306;5.634;2023-06-22T10:49:04;5.35;;;4.30;;
60318;SDS011;46163;52.306;5.634;2023-06-22T10:51:29;8.02;;;4.65;;
60318;SDS011;46163;52.306;5.634;2023-06-22T10:53:56;5.10;;;4.00;;
60318;SDS011;46163;52.306;5.634;2023-06-22T10:56:22;6.95;;;3.60;;
60318;SDS011;46163;52.306;5.634;2023-06-22T10:58:47;6.03;;;4.20;;
60318;SDS011;46163;52.306;5.634;2023-06-22T11:01:13;6.20;;;4.30;;
60318;SDS011;46163;52.306;5.634;2023-06-22T11:03:39;6.68;;;4.45;;
60318;SDS011;46163;52.306;5.634;2023-06-22T11:06:04;6.38;;;3.60;;
60318;SDS011;46163;52.306;5.634;2023-06-22T11:08:30;5.28;;;3.88;;
60318;SDS011;46163;52.306;5.634;2023-06-22T11:10:56;6.32;;;3.80;;
60318;SDS011;46163;52.306;5.634;2023-06-22T11:13:22;5.75;;;3.90;;
60318;SDS011;46163;52.306;5.634;2023-06-22T11:15:47;4.97;;;4.05;;
60318;SDS011;46163;52.306;5.634;2023-06-22T11:18:13;6.05;;;4.38;;
60318;SDS011;46163;52.306;5.634;2023-06-22T11:20:38;7.88;;;3.97;;
60318;SDS011;46163;52.306;5.634;2023-06-22T11:23:05;5.60;;;4.30;;
60318;SDS011;46163;52.306;5.634;2023-06-22T11:25:31;5.63;;;4.40;;
60318;SDS011;46163;52.306;5.634;2023-06-22T11:27:59;6.57;;;4.28;;
60318;SDS011;46163;52.306;5.634;2023-06-22T11:30:28;5.15;;;4.65;;
60318;SDS011;46163;52.306;5.634;2023-06-22T11:32:53;5.05;;;4.07;;
60318;SDS011;46163;52.306;5.634;2023-06-22T11:35:19;5.95;;;3.85;;
60318;SDS011;46163;52.306;5.634;2023-06-22T11:37:44;6.35;;;4.28;;
60318;SDS011;46163;52.306;5.634;2023-06-22T11:40:10;7.63;;;4.90;;
60318;SDS011;46163;52.306;5.634;2023-06-22T11:42:36;6.40;;;4.38;;
60318;SDS011;46163;52.306;5.634;2023-06-22T11:45:04;5.88;;;4.38;;
60318;SDS011;46163;52.306;5.634;2023-06-22T11:47:31;6.60;;;4.55;;
60318;SDS011;46163;52.306;5.634;2023-06-22T11:49:57;5.93;;;4.43;;
60318;SDS011;46163;52.306;5.634;2023-06-22T11:52:23;5.85;;;4.05;;
60318;SDS011;46163;52.306;5.634;2023-06-22T11:54:48;4.90;;;3.70;;
60318;SDS011;46163;52.306;5.634;2023-06-22T11:57:14;5.10;;;3.17;;
60318;SDS011;46163;52.306;5.634;2023-06-22T11:59:39;4.75;;;4.03;;
60318;SDS011;46163;52.306;5.634;2023-06-22T12:02:05;4.88;;;3.67;;
60318;SDS011;46163;52.306;5.634;2023-06-22T12:04:32;4.78;;;3.92;;
60318;SDS011;46163;52.306;5.634;2023-06-22T12:06:58;5.57;;;4.35;;
60318;SDS011;46163;52.306;5.634;2023-06-22T12:09:24;5.00;;;3.50;;
60318;SDS011;46163;52.306;5.634;2023-06-22T12:11:50;4.85;;;3.13;;
60318;SDS011;46163;52.306;5.634;2023-06-22T12:14:15;4.57;;;3.83;;
60318;SDS011;46163;52.306;5.634;2023-06-22T12:16:41;4.38;;;3.90;;
60318;SDS011;46163;52.306;5.634;2023-06-22T12:21:34;5.65;;;4.13;;
60318;SDS011;46163;52.306;5.634;2023-06-22T12:24:04;3.60;;;3.20;;
60318;SDS011;46163;52.306;5.634;2023-06-22T12:26:30;3.92;;;3.50;;
60318;SDS011;46163;52.306;5.634;2023-06-22T12:28:55;4.38;;;3.15;;
60318;SDS011;46163;52.306;5.634;2023-06-22T12:31:22;5.53;;;3.22;;
60318;SDS011;46163;52.306;5.634;2023-06-22T12:33:48;3.72;;;3.10;;
60318;SDS011;46163;52.306;5.634;2023-06-22T12:36:14;5.30;;;2.97;;
60318;SDS011;46163;52.306;5.634;2023-06-22T12:38:41;3.75;;;3.15;;
60318;SDS011;46163;52.306;5.634;2023-06-22T12:41:07;13.50;;;3.00;;
60318;SDS011;46163;52.306;5.634;2023-06-22T12:43:32;5.18;;;3.38;;
60318;SDS011;46163;52.306;5.634;2023-06-22T12:45:58;3.72;;;2.90;;
60318;SDS011;46163;52.306;5.634;2023-06-22T12:48:25;3.35;;;2.92;;
60318;SDS011;46163;52.306;5.634;2023-06-22T12:50:51;5.00;;;2.97;;
60318;SDS011;46163;52.306;5.634;2023-06-22T12:53:16;4.32;;;3.30;;
60318;SDS011;46163;52.306;5.634;2023-06-22T12:55:42;4.25;;;3.50;;
60318;SDS011;46163;52.306;5.634;2023-06-22T12:58:07;4.55;;;3.45;;
60318;SDS011;46163;52.306;5.634;2023-06-22T13:00:34;5.78;;;3.72;;
60318;SDS011;46163;52.306;5.634;2023-06-22T13:02:59;4.85;;;3.47;;
60318;SDS011;46163;52.306;5.634;2023-06-22T13:05:40;8.20;;;3.00;;
60318;SDS011;46163;52.306;5.634;2023-06-22T13:08:05;8.25;;;3.20;;
60318;SDS011;46163;52.306;5.634;2023-06-22T13:10:31;4.43;;;3.25;;
60318;SDS011;46163;52.306;5.634;2023-06-22T13:12:57;3.25;;;2.85;;
60318;SDS011;46163;52.306;5.634;2023-06-22T13:15:26;3.60;;;2.95;;
60318;SDS011;46163;52.306;5.634;2023-06-22T13:17:53;3.60;;;2.88;;
60318;SDS011;46163;52.306;5.634;2023-06-22T13:20:19;4.40;;;3.47;;
60318;SDS011;46163;52.306;5.634;2023-06-22T13:22:44;4.97;;;3.42;;
60318;SDS011;46163;52.306;5.634;2023-06-22T13:25:10;3.70;;;3.20;;
60318;SDS011;46163;52.306;5.634;2023-06-22T13:27:44;5.32;;;3.50;;
60318;SDS011;46163;52.306;5.634;2023-06-22T13:30:10;4.38;;;3.08;;
60318;SDS011;46163;52.306;5.634;2023-06-22T13:32:36;6.53;;;3.38;;
60318;SDS011;46163;52.306;5.634;2023-06-22T13:35:06;4.13;;;3.42;;
60318;SDS011;46163;52.306;5.634;2023-06-22T13:37:33;5.07;;;3.58;;
60318;SDS011;46163;52.306;5.634;2023-06-22T13:39:59;6.85;;;4.22;;
60318;SDS011;46163;52.306;5.634;2023-06-22T13:42:25;4.03;;;3.30;;
60318;SDS011;46163;52.306;5.634;2023-06-22T13:44:53;6.40;;;4.53;;
60318;SDS011;46163;52.306;5.634;2023-06-22T13:47:19;5.95;;;3.85;;
60318;SDS011;46163;52.306;5.634;2023-06-22T13:49:44;6.40;;;3.90;;
60318;SDS011;46163;52.306;5.634;2023-06-22T13:52:10;4.90;;;3.30;;
60318;SDS011;46163;52.306;5.634;2023-06-22T13:54:37;11.90;;;3.83;;
60318;SDS011;46163;52.306;5.634;2023-06-22T13:57:04;6.90;;;4.20;;
60318;SDS011;46163;52.306;5.634;2023-06-22T13:59:32;6.38;;;3.85;;
60318;SDS011;46163;52.306;5.634;2023-06-22T14:01:58;6.20;;;3.88;;
60318;SDS011;46163;52.306;5.634;2023-06-22T14:04:23;5.88;;;4.00;;
60318;SDS011;46163;52.306;5.634;2023-06-22T14:06:49;5.97;;;4.30;;
60318;SDS011;46163;52.306;5.634;2023-06-22T14:09:15;5.53;;;4.43;;
60318;SDS011;46163;52.306;5.634;2023-06-22T14:11:40;5.10;;;3.97;;
60318;SDS011;46163;52.306;5.634;2023-06-22T14:14:06;10.48;;;4.13;;
60318;SDS011;46163;52.306;5.634;2023-06-22T14:16:32;6.47;;;4.55;;
60318;SDS011;46163;52.306;5.634;2023-06-22T14:18:57;6.05;;;4.60;;
60318;SDS011;46163;52.306;5.634;2023-06-22T14:21:23;5.70;;;4.88;;
60318;SDS011;46163;52.306;5.634;2023-06-22T14:23:49;7.35;;;4.97;;
60318;SDS011;46163;52.306;5.634;2023-06-22T14:26:15;6.45;;;5.03;;
60318;SDS011;46163;52.306;5.634;2023-06-22T14:28:53;9.25;;;6.03;;
60318;SDS011;46163;52.306;5.634;2023-06-22T14:31:19;6.40;;;5.50;;
60318;SDS011;46163;52.306;5.634;2023-06-22T14:33:48;7.40;;;5.93;;
60318;SDS011;46163;52.306;5.634;2023-06-22T14:36:17;7.88;;;5.63;;
60318;SDS011;46163;52.306;5.634;2023-06-22T14:38:44;7.03;;;5.63;;
60318;SDS011;46163;52.306;5.634;2023-06-22T14:41:11;8.30;;;6.38;;
60318;SDS011;46163;52.306;5.634;2023-06-22T14:43:36;10.05;;;6.70;;
60318;SDS011;46163;52.306;5.634;2023-06-22T14:46:02;6.60;;;5.65;;
60318;SDS011;46163;52.306;5.634;2023-06-22T14:48:27;6.78;;;5.78;;
60318;SDS011;46163;52.306;5.634;2023-06-22T14:50:53;7.97;;;5.93;;
60318;SDS011;46163;52.306;5.634;2023-06-22T14:53:19;6.60;;;5.60;;
60318;SDS011;46163;52.306;5.634;2023-06-22T14:55:44;6.35;;;5.45;;
60318;SDS011;46163;52.306;5.634;2023-06-22T14:58:10;5.93;;;5.32;;
60318;SDS011;46163;52.306;5.634;2023-06-22T15:00:37;7.35;;;5.38;;
60318;SDS011;46163;52.306;5.634;2023-06-22T15:03:03;7.07;;;5.90;;
60318;SDS011;46163;52.306;5.634;2023-06-22T15:05:31;6.65;;;5.95;;
60318;SDS011;46163;52.306;5.634;2023-06-22T15:07:57;9.07;;;6.07;;
60318;SDS011;46163;52.306;5.634;2023-06-22T15:10:22;6.75;;;6.05;;
60318;SDS011;46163;52.306;5.634;2023-06-22T15:12:49;8.05;;;5.90;;
60318;SDS011;46163;52.306;5.634;2023-06-22T15:15:15;8.35;;;6.28;;
60318;SDS011;46163;52.306;5.634;2023-06-22T15:17:41;9.45;;;6.47;;
60318;SDS011;46163;52.306;5.634;2023-06-22T15:20:06;7.38;;;6.20;;
60318;SDS011;46163;52.306;5.634;2023-06-22T15:22:32;8.73;;;6.80;;
60318;SDS011;46163;52.306;5.634;2023-06-22T15:24:58;10.88;;;6.13;;
60318;SDS011;46163;52.306;5.634;2023-06-22T15:27:24;7.53;;;6.40;;
60318;SDS011;46163;52.306;5.634;2023-06-22T15:29:49;7.65;;;6.63;;
60318;SDS011;46163;52.306;5.634;2023-06-22T15:32:15;6.75;;;6.05;;
60318;SDS011;46163;52.306;5.634;2023-06-22T15:34:41;9.82;;;6.63;;
60318;SDS011;46163;52.306;5.634;2023-06-22T15:37:06;9.13;;;6.63;;
60318;SDS011;46163;52.306;5.634;2023-06-22T15:39:32;7.30;;;6.47;;
60318;SDS011;46163;52.306;5.634;2023-06-22T15:41:58;7.97;;;6.78;;
60318;SDS011;46163;52.306;5.634;2023-06-22T15:44:23;7.63;;;6.47;;
60318;SDS011;46163;52.306;5.634;2023-06-22T15:46:51;8.25;;;6.55;;
60318;SDS011;46163;52.306;5.634;2023-06-22T15:49:17;8.75;;;6.90;;
60318;SDS011;46163;52.306;5.634;2023-06-22T15:51:43;7.50;;;6.78;;
60318;SDS011;46163;52.306;5.634;2023-06-22T15:54:09;9.07;;;6.75;;
60318;SDS011;46163;52.306;5.634;2023-06-22T15:56:34;10.88;;;7.38;;
60318;SDS011;46163;52.306;5.634;2023-06-22T16:01:27;8.55;;;6.53;;
60318;SDS011;46163;52.306;5.634;2023-06-22T16:03:53;8.02;;;6.45;;
60318;SDS011;46163;52.306;5.634;2023-06-22T16:06:19;7.82;;;7.03;;
60318;SDS011;46163;52.306;5.634;2023-06-22T16:08:49;8.48;;;6.75;;